Pagina principale
METAR-TAF:

METAR-TAF

Aeroporti :

Aeroporto di Southend

Londra-Southend, Inghilterra

latitudine: 51-34N, longitudine: 000-42E, altezza: 15 m

Osservazione

Il bollettino è stato emesso 1 ora e 0 minuti fa, alle 16:50 UTC
Vento 15 kt da est/nord-est
Temperature 18°C
Umidità 45%
Pressione 1023 hPa
Visibilità 10 km o più
nessuna nube inferiore a 1500 m e nessun cumulonembo

METAR: EGMC 311650Z 07015KT CAVOK 18/06 Q1023

Ora: 18:50 (17:50 UTC)

Previsione

Il bollettino è stato emesso 3 ore e 49 minuti fa, alle 14:01 UTC
Previsione valida dal 31 alle 15 UTC al 31 alle 24 UTC
Vento 15 kt da est/nord-est
Visibilità 10 km o più
nessuna nube inferiore a 1500 m e nessun cumulonembo

TAF: EGMC 311401Z 3115/3124 06015KT CAVOK

Osservazioni e previsioni meteorologiche di più di 4000 aeroporti (messaggi METAR e TAF).

Le stazioni disponibili sono rappresentate dai dischi gialli e rossi sulla carta.

Puntare il mouse per vedere il nome della stazione.

Clicca sopra per visualizzare le osservazioni e previsioni meteorologiche.

Per cambiare la mappa : fare clic sui pulsanti verdi con una croce nera per ingrandire, il pulsante verde con un trattino per diminuire, o sulla freccia verde per le mappe adiacenti.


METAR-TAF: